Time;durP1;ratioP1;P1;durP2;ratioP2;P2;SDS_P1;SDS_P2;PMS_P1;PMS_P2;Temp;Humidity;BMP_temperature;BMP_pressure;BME280_temperature;BME280_humidity;BME280_pressure;Samples;Min_cycle;Max_cycle;Signal;HPM_P1;HPM_P2
2022/03/22 00:00:59;;;;;;;16.70;10.88;;;;;;;;;;5108236;28;20456;-68
2022/03/22 00:03:25;;;;;;;16.25;10.70;;;;;;;;;;5110719;28;20023;-68
2022/03/22 00:05:52;;;;;;;17.30;9.95;;;;;;;;;;5110946;28;20067;-68
2022/03/22 00:08:18;;;;;;;16.35;10.10;;;;;;;;;;5108791;28;20020;-68
2022/03/22 00:10:45;;;;;;;18.25;10.98;;;;;;;;;;5110397;28;20035;-68
2022/03/22 00:13:11;;;;;;;17.88;10.48;;;;;;;;;;5108528;28;20077;-68
2022/03/22 00:15:38;;;;;;;15.55;10.02;;;;;;;;;;5109400;28;20067;-67
2022/03/22 00:18:04;;;;;;;19.92;11.20;;;;;;;;;;5108561;28;20459;-68
2022/03/22 00:20:30;;;;;;;16.92;10.60;;;;;;;;;;5105946;28;20030;-68
2022/03/22 00:22:56;;;;;;;18.27;11.10;;;;;;;;;;5093133;28;20445;-68
2022/03/22 00:25:23;;;;;;;17.60;10.65;;;;;;;;;;5107999;28;20028;-69
2022/03/22 00:27:53;;;;;;;15.55;9.90;;;;;;;;;;5089875;28;20388;-66
2022/03/22 00:30:19;;;;;;;17.10;10.05;;;;;;;;;;5099583;28;20446;-67
2022/03/22 00:32:45;;;;;;;16.48;9.38;;;;;;;;;;5096787;28;20046;-67
2022/03/22 00:35:11;;;;;;;15.23;9.23;;;;;;;;;;5095932;28;20072;-67
2022/03/22 00:37:41;;;;;;;14.82;9.90;;;;;;;;;;5094727;28;20469;-66
2022/03/22 00:40:15;;;;;;;14.98;9.88;;;;;;;;;;5094416;28;20469;-66
2022/03/22 00:42:41;;;;;;;15.35;9.65;;;;;;;;;;5097028;28;20024;-67
2022/03/22 00:45:07;;;;;;;16.63;10.80;;;;;;;;;;5097187;28;20082;-67
2022/03/22 00:47:33;;;;;;;15.52;9.93;;;;;;;;;;5096289;28;20024;-67
2022/03/22 00:50:00;;;;;;;20.98;10.00;;;;;;;;;;5096696;28;20045;-66
2022/03/22 00:52:26;;;;;;;16.17;10.20;;;;;;;;;;5093621;28;20082;-66
2022/03/22 00:54:53;;;;;;;15.18;9.57;;;;;;;;;;5094923;28;20063;-66
2022/03/22 00:57:19;;;;;;;16.48;9.75;;;;;;;;;;5097176;28;20024;-67
2022/03/22 01:02:30;;;;;;;14.90;9.32;;;;;;;;;;5096489;28;20092;-67
2022/03/22 01:04:56;;;;;;;17.35;9.90;;;;;;;;;;5095336;28;20102;-67
2022/03/22 01:07:23;;;;;;;15.65;10.35;;;;;;;;;;5093850;28;20103;-67
2022/03/22 01:09:49;;;;;;;17.00;9.75;;;;;;;;;;5107905;28;20085;-67
2022/03/22 01:12:15;;;;;;;15.00;9.27;;;;;;;;;;5105892;28;20028;-66
2022/03/22 01:14:42;;;;;;;15.38;9.80;;;;;;;;;;5100167;28;20036;-66
2022/03/22 01:17:08;;;;;;;15.32;9.57;;;;;;;;;;5096227;28;20023;-66
2022/03/22 01:19:35;;;;;;;16.33;10.23;;;;;;;;;;5093658;28;20035;-67
2022/03/22 01:22:01;;;;;;;15.35;9.85;;;;;;;;;;5093960;28;20042;-66
2022/03/22 01:24:27;;;;;;;14.48;9.18;;;;;;;;;;5095827;28;20183;-67
2022/03/22 01:26:53;;;;;;;16.67;9.85;;;;;;;;;;5096139;28;20055;-67
2022/03/22 01:29:19;;;;;;;14.68;9.30;;;;;;;;;;5096311;28;20078;-67
2022/03/22 01:31:45;;;;;;;19.95;9.40;;;;;;;;;;5094798;28;20296;-67
2022/03/22 01:34:11;;;;;;;16.08;9.43;;;;;;;;;;5074232;28;20063;-67
2022/03/22 01:36:37;;;;;;;18.85;9.85;;;;;;;;;;5095748;28;20366;-66
2022/03/22 01:39:03;;;;;;;14.68;9.60;;;;;;;;;;5096070;28;20032;-65
2022/03/22 01:41:30;;;;;;;15.10;9.07;;;;;;;;;;5095775;28;20080;-68
2022/03/22 01:43:56;;;;;;;16.80;10.40;;;;;;;;;;5096217;28;20031;-67
2022/03/22 01:46:24;;;;;;;14.73;9.20;;;;;;;;;;5092471;28;20266;-66
2022/03/22 01:48:50;;;;;;;15.10;8.88;;;;;;;;;;5107305;28;20016;-66
2022/03/22 01:51:18;;;;;;;14.73;9.02;;;;;;;;;;5095951;28;20048;-66
2022/03/22 01:53:46;;;;;;;15.75;9.70;;;;;;;;;;5095732;28;20024;-67
2022/03/22 01:56:13;;;;;;;14.07;8.57;;;;;;;;;;5095647;28;20039;-67
2022/03/22 01:58:39;;;;;;;13.63;9.30;;;;;;;;;;5093530;28;20024;-66
2022/03/22 02:06:36;;;;;;;16.80;9.68;;;;;;;;;;5095661;28;20050;-67
2022/03/22 02:09:02;;;;;;;15.10;9.98;;;;;;;;;;5104582;28;20498;-67
2022/03/22 02:11:28;;;;;;;15.45;9.60;;;;;;;;;;5085536;28;20026;-67
2022/03/22 02:13:56;;;;;;;14.20;9.55;;;;;;;;;;5095353;28;20473;-67
2022/03/22 02:16:22;;;;;;;15.10;9.35;;;;;;;;;;5090486;28;20350;-67
2022/03/22 02:18:49;;;;;;;15.48;9.52;;;;;;;;;;5095011;28;20028;-67
2022/03/22 02:21:16;;;;;;;12.75;7.50;;;;;;;;;;5104986;28;20043;-67
2022/03/22 02:23:50;;;;;;;16.13;9.18;;;;;;;;;;5099910;28;20028;-67
2022/03/22 02:26:16;;;;;;;14.07;8.98;;;;;;;;;;5095710;28;20063;-67
2022/03/22 02:28:43;;;;;;;14.10;9.18;;;;;;;;;;5107332;28;20052;-66
2022/03/22 02:31:09;;;;;;;16.83;9.50;;;;;;;;;;5091997;28;20040;-67
2022/03/22 02:33:35;;;;;;;15.73;9.77;;;;;;;;;;5094842;28;20032;-67
2022/03/22 02:36:01;;;;;;;14.27;9.18;;;;;;;;;;5095284;28;20040;-66
2022/03/22 02:38:27;;;;;;;14.23;8.45;;;;;;;;;;5095146;28;20039;-66
2022/03/22 02:40:53;;;;;;;15.40;9.55;;;;;;;;;;5095569;28;20107;-66
2022/03/22 02:43:19;;;;;;;15.10;10.15;;;;;;;;;;5091206;28;20046;-67
2022/03/22 02:45:45;;;;;;;16.33;9.38;;;;;;;;;;5105665;28;20488;-67
2022/03/22 02:48:11;;;;;;;15.57;9.48;;;;;;;;;;5095735;28;20081;-67
2022/03/22 02:50:37;;;;;;;13.00;8.45;;;;;;;;;;5078027;28;20354;-67
2022/03/22 02:53:03;;;;;;;11.52;8.00;;;;;;;;;;5094968;28;20085;-67
2022/03/22 02:55:29;;;;;;;12.52;8.48;;;;;;;;;;5091314;28;20043;-67
2022/03/22 02:57:55;;;;;;;15.18;9.05;;;;;;;;;;5093123;28;20028;-67
2022/03/22 03:00:23;;;;;;;14.88;9.65;;;;;;;;;;5104939;28;20036;-67
2022/03/22 03:02:50;;;;;;;15.57;9.27;;;;;;;;;;5098580;28;20465;-67
2022/03/22 03:05:20;;;;;;;16.20;9.27;;;;;;;;;;5095340;28;20076;-67
2022/03/22 03:07:47;;;;;;;14.52;9.15;;;;;;;;;;5106884;28;20559;-67
2022/03/22 03:10:13;;;;;;;15.40;8.52;;;;;;;;;;5106873;28;20020;-67
2022/03/22 03:12:39;;;;;;;13.95;8.63;;;;;;;;;;5094698;28;20150;-66
2022/03/22 03:15:07;;;;;;;14.90;8.85;;;;;;;;;;5094214;28;20044;-66
2022/03/22 03:17:33;;;;;;;14.82;9.13;;;;;;;;;;5095146;28;20507;-66
2022/03/22 03:19:59;;;;;;;15.63;9.07;;;;;;;;;;5094643;28;20035;-67
2022/03/22 03:22:25;;;;;;;14.52;8.50;;;;;;;;;;5091741;28;20034;-66
2022/03/22 03:24:51;;;;;;;15.90;9.20;;;;;;;;;;5093520;28;20050;-66
2022/03/22 03:27:17;;;;;;;13.63;8.25;;;;;;;;;;5095712;28;20032;-66
2022/03/22 03:29:44;;;;;;;14.45;8.43;;;;;;;;;;5097804;28;20043;-66
2022/03/22 03:32:10;;;;;;;14.43;8.80;;;;;;;;;;5080601;28;20145;-66
2022/03/22 03:34:36;;;;;;;15.10;9.30;;;;;;;;;;5096376;28;20036;-66
2022/03/22 03:37:03;;;;;;;14.10;8.95;;;;;;;;;;5077542;28;20020;-66
2022/03/22 03:39:29;;;;;;;16.80;9.48;;;;;;;;;;5098421;28;20020;-67
2022/03/22 03:41:56;;;;;;;15.27;9.43;;;;;;;;;;5098860;28;20098;-66
2022/03/22 03:47:08;;;;;;;13.35;8.75;;;;;;;;;;5107412;28;20038;-67
2022/03/22 03:49:38;;;;;;;13.68;8.35;;;;;;;;;;5095497;28;20024;-67
2022/03/22 03:52:05;;;;;;;14.60;8.25;;;;;;;;;;5077842;28;20138;-67
2022/03/22 03:54:31;;;;;;;13.15;7.78;;;;;;;;;;5097840;28;20445;-66
2022/03/22 03:56:57;;;;;;;17.55;8.95;;;;;;;;;;5097704;28;20123;-67
2022/03/22 03:59:23;;;;;;;14.60;9.52;;;;;;;;;;5097865;28;20028;-67
2022/03/22 04:01:49;;;;;;;15.57;8.90;;;;;;;;;;5097184;28;20027;-67
2022/03/22 04:04:15;;;;;;;14.77;9.15;;;;;;;;;;5094118;28;20024;-67
2022/03/22 04:06:41;;;;;;;14.32;8.90;;;;;;;;;;5097685;28;20077;-67
2022/03/22 04:09:07;;;;;;;15.23;9.65;;;;;;;;;;5089322;28;20031;-67
2022/03/22 04:11:33;;;;;;;14.15;8.73;;;;;;;;;;5103804;28;20473;-68
2022/03/22 04:13:59;;;;;;;13.40;8.38;;;;;;;;;;5096920;28;20039;-67
2022/03/22 04:16:25;;;;;;;12.60;7.80;;;;;;;;;;5093792;28;20111;-67
2022/03/22 04:18:51;;;;;;;13.75;8.38;;;;;;;;;;5095647;28;20398;-67
2022/03/22 04:21:17;;;;;;;14.77;9.20;;;;;;;;;;5098117;28;20090;-67
2022/03/22 04:23:43;;;;;;;15.50;8.52;;;;;;;;;;5102987;28;20547;-66
2022/03/22 04:26:09;;;;;;;12.43;8.15;;;;;;;;;;5111248;28;20099;-68
2022/03/22 04:34:05;;;;;;;12.90;7.63;;;;;;;;;;5110886;28;20397;-66
2022/03/22 04:36:31;;;;;;;16.60;8.60;;;;;;;;;;5111982;28;20054;-66
2022/03/22 04:38:57;;;;;;;13.38;8.35;;;;;;;;;;5098295;28;20055;-66
2022/03/22 04:41:23;;;;;;;14.68;8.93;;;;;;;;;;5097106;28;20035;-66
2022/03/22 04:43:50;;;;;;;13.90;8.68;;;;;;;;;;5096306;28;20078;-69
2022/03/22 04:46:18;;;;;;;16.08;8.55;;;;;;;;;;5092095;28;20081;-68
2022/03/22 04:48:45;;;;;;;12.70;7.07;;;;;;;;;;5096769;28;20114;-68
2022/03/22 04:56:43;;;;;;;15.63;8.80;;;;;;;;;;5096702;28;20105;-69
2022/03/22 04:59:10;;;;;;;15.88;8.55;;;;;;;;;;5079118;28;20031;-68
2022/03/22 05:01:36;;;;;;;15.15;8.63;;;;;;;;;;5075937;28;20142;-68
2022/03/22 05:04:02;;;;;;;13.68;8.65;;;;;;;;;;5109014;28;20019;-68
2022/03/22 05:06:28;;;;;;;17.50;8.38;;;;;;;;;;5096518;28;20521;-68
2022/03/22 05:08:55;;;;;;;13.20;7.93;;;;;;;;;;5104170;28;20108;-68
2022/03/22 05:11:21;;;;;;;11.98;7.97;;;;;;;;;;5088990;28;20028;-68
2022/03/22 05:13:47;;;;;;;12.60;8.18;;;;;;;;;;5095804;28;20059;-68
2022/03/22 05:16:13;;;;;;;13.10;8.93;;;;;;;;;;5092862;28;20109;-68
2022/03/22 05:18:39;;;;;;;15.27;9.02;;;;;;;;;;5077007;28;20020;-66
2022/03/22 05:21:06;;;;;;;18.58;8.77;;;;;;;;;;5101426;28;20019;-68
2022/03/22 05:23:33;;;;;;;14.20;8.05;;;;;;;;;;5109154;28;20478;-68
2022/03/22 05:25:59;;;;;;;15.38;8.30;;;;;;;;;;5106076;28;20031;-69
2022/03/22 05:28:25;;;;;;;13.25;7.55;;;;;;;;;;5109462;28;20506;-66
2022/03/22 05:30:50;;;;;;;12.52;7.88;;;;;;;;;;5111292;28;20042;-66
2022/03/22 05:33:16;;;;;;;13.75;8.10;;;;;;;;;;5110032;28;20074;-66
2022/03/22 05:35:42;;;;;;;13.70;7.75;;;;;;;;;;5108435;28;20092;-67
2022/03/22 05:38:08;;;;;;;14.00;8.95;;;;;;;;;;5089891;28;20031;-67
2022/03/22 05:40:34;;;;;;;15.30;9.15;;;;;;;;;;5093432;28;20031;-67
2022/03/22 05:43:00;;;;;;;14.25;8.32;;;;;;;;;;5108068;28;20027;-67
2022/03/22 05:45:26;;;;;;;13.63;8.40;;;;;;;;;;5108810;28;20027;-67
2022/03/22 05:47:53;;;;;;;16.55;8.32;;;;;;;;;;5104431;28;20088;-66
2022/03/22 05:50:19;;;;;;;12.98;7.88;;;;;;;;;;5088356;28;20039;-67
2022/03/22 05:52:47;;;;;;;13.80;8.43;;;;;;;;;;5095266;28;20027;-76
2022/03/22 05:55:13;;;;;;;15.38;8.68;;;;;;;;;;5092143;28;20040;-76
2022/03/22 05:57:39;;;;;;;14.27;8.07;;;;;;;;;;5106713;28;20012;-77
2022/03/22 06:00:06;;;;;;;14.30;8.05;;;;;;;;;;5097091;28;20493;-76
2022/03/22 06:02:32;;;;;;;12.38;7.80;;;;;;;;;;5096196;28;20031;-76
2022/03/22 06:04:58;;;;;;;12.35;7.95;;;;;;;;;;5095948;28;20035;-76
2022/03/22 06:07:24;;;;;;;14.00;8.30;;;;;;;;;;5091997;28;20036;-76
2022/03/22 06:09:50;;;;;;;12.73;7.78;;;;;;;;;;5109280;28;20118;-76
2022/03/22 06:12:18;;;;;;;12.80;8.18;;;;;;;;;;5096400;28;20036;-76
2022/03/22 06:14:44;;;;;;;14.05;8.00;;;;;;;;;;5095699;28;20044;-76
2022/03/22 06:17:10;;;;;;;12.27;7.45;;;;;;;;;;5095979;28;20459;-77
2022/03/22 06:19:37;;;;;;;13.30;7.72;;;;;;;;;;5092411;28;20034;-76
2022/03/22 06:22:03;;;;;;;12.32;7.38;;;;;;;;;;5107568;28;20076;-72
2022/03/22 06:24:29;;;;;;;13.70;8.45;;;;;;;;;;5089269;28;20028;-78
2022/03/22 06:26:55;;;;;;;14.50;8.10;;;;;;;;;;5098006;28;20150;-66
2022/03/22 06:29:21;;;;;;;12.88;7.65;;;;;;;;;;5094679;28;20119;-66
2022/03/22 06:31:47;;;;;;;11.73;7.88;;;;;;;;;;5076923;28;20123;-67
2022/03/22 06:34:13;;;;;;;17.73;9.43;;;;;;;;;;5090837;28;20020;-63
2022/03/22 06:36:39;;;;;;;16.23;10.15;;;;;;;;;;5094728;28;20413;-66
2022/03/22 06:39:05;;;;;;;15.00;9.20;;;;;;;;;;5076464;28;20034;-64
2022/03/22 06:41:31;;;;;;;16.67;9.32;;;;;;;;;;5094601;28;20027;-65
2022/03/22 06:43:57;;;;;;;14.52;8.32;;;;;;;;;;5094613;28;20088;-62
2022/03/22 06:46:23;;;;;;;14.93;8.50;;;;;;;;;;5090590;28;20051;-66
2022/03/22 06:48:49;;;;;;;13.00;7.50;;;;;;;;;;5093478;28;20376;-67
2022/03/22 06:51:15;;;;;;;10.77;6.63;;;;;;;;;;5095242;28;20032;-67
2022/03/22 06:53:41;;;;;;;11.30;7.45;;;;;;;;;;5094164;28;20032;-68
2022/03/22 06:56:07;;;;;;;12.07;7.45;;;;;;;;;;5092901;28;20040;-67
2022/03/22 06:58:33;;;;;;;11.95;6.70;;;;;;;;;;5105467;28;20027;-66
2022/03/22 07:00:59;;;;;;;12.27;7.75;;;;;;;;;;5105712;28;20028;-67
2022/03/22 07:03:26;;;;;;;13.82;9.00;;;;;;;;;;5097816;28;20021;-67
2022/03/22 07:05:53;;;;;;;13.13;8.77;;;;;;;;;;5097152;28;20556;-67
2022/03/22 07:08:19;;;;;;;13.07;8.90;;;;;;;;;;5100180;28;20441;-72
2022/03/22 07:11:47;;;;;;;13.50;8.52;;;;;;;;;;5109842;28;20081;-72
2022/03/22 07:13:32;;;;;;;11.30;7.78;;;;;;;;;;5095560;28;20120;-71
2022/03/22 07:15:59;;;;;;;12.35;8.48;;;;;;;;;;5096741;28;20028;-70
2022/03/22 07:18:25;;;;;;;10.98;7.55;;;;;;;;;;5099163;28;20024;-71
2022/03/22 07:20:51;;;;;;;12.23;7.93;;;;;;;;;;5080966;28;20028;-70
2022/03/22 07:23:17;;;;;;;8.55;6.78;;;;;;;;;;5097824;28;20035;-71
2022/03/22 07:25:43;;;;;;;12.07;7.22;;;;;;;;;;5097539;28;20032;-72
2022/03/22 07:28:09;;;;;;;10.02;7.40;;;;;;;;;;5077615;28;20031;-72
2022/03/22 07:30:35;;;;;;;11.73;7.80;;;;;;;;;;5097824;28;20497;-76
2022/03/22 07:33:05;;;;;;;9.43;7.65;;;;;;;;;;5098325;28;20031;-75
2022/03/22 07:35:32;;;;;;;9.80;7.55;;;;;;;;;;5097463;28;20630;-71
2022/03/22 07:37:58;;;;;;;9.82;7.40;;;;;;;;;;5078737;28;20130;-70
2022/03/22 07:40:24;;;;;;;11.98;7.70;;;;;;;;;;5110390;28;20547;-69
2022/03/22 07:42:50;;;;;;;10.52;7.40;;;;;;;;;;5097000;28;20024;-70
2022/03/22 07:45:19;;;;;;;8.82;7.07;;;;;;;;;;5107707;28;20031;-74
2022/03/22 07:47:45;;;;;;;9.35;6.55;;;;;;;;;;5084496;28;20400;-73
2022/03/22 07:53:05;;;;;;;9.05;6.70;;;;;;;;;;5097627;28;20463;-75
2022/03/22 07:55:32;;;;;;;8.27;6.50;;;;;;;;;;5095509;28;20058;-67
2022/03/22 07:57:59;;;;;;;9.23;6.35;;;;;;;;;;5096015;28;20012;-74
2022/03/22 08:00:30;;;;;;;8.63;6.30;;;;;;;;;;5098128;28;20072;-74
2022/03/22 08:02:57;;;;;;;9.93;6.70;;;;;;;;;;5097629;28;20024;-74
2022/03/22 08:05:23;;;;;;;9.20;7.00;;;;;;;;;;5097876;28;20031;-74
2022/03/22 08:07:49;;;;;;;8.75;6.13;;;;;;;;;;5097534;28;20033;-74
2022/03/22 08:10:16;;;;;;;9.88;6.70;;;;;;;;;;5109730;28;20024;-74
2022/03/22 08:12:42;;;;;;;10.48;6.10;;;;;;;;;;5097559;28;20397;-74
2022/03/22 08:15:11;;;;;;;8.55;6.30;;;;;;;;;;5097448;28;20036;-73
2022/03/22 08:17:39;;;;;;;9.32;6.00;;;;;;;;;;5100846;28;20520;-74
2022/03/22 08:20:05;;;;;;;12.02;6.07;;;;;;;;;;5089449;28;20119;-74
2022/03/22 08:22:34;;;;;;;9.73;6.13;;;;;;;;;;5094619;28;20020;-72
2022/03/22 08:25:00;;;;;;;9.85;6.07;;;;;;;;;;5076788;28;20020;-75
2022/03/22 08:27:26;;;;;;;10.73;6.00;;;;;;;;;;5097519;28;20086;-73
2022/03/22 08:29:52;;;;;;;8.93;6.13;;;;;;;;;;5103857;28;20047;-73
2022/03/22 08:32:18;;;;;;;8.70;5.68;;;;;;;;;;5105012;28;20031;-74
2022/03/22 08:34:44;;;;;;;9.05;5.40;;;;;;;;;;5096278;28;20077;-75
2022/03/22 08:37:12;;;;;;;7.45;5.38;;;;;;;;;;5076175;28;20028;-73
2022/03/22 08:39:38;;;;;;;8.57;5.60;;;;;;;;;;5096882;28;20016;-73
2022/03/22 08:42:04;;;;;;;10.85;5.80;;;;;;;;;;5097450;28;20055;-74
2022/03/22 08:44:30;;;;;;;7.30;5.65;;;;;;;;;;5097828;28;20057;-74
2022/03/22 08:46:57;;;;;;;7.47;5.32;;;;;;;;;;5096708;28;20035;-74
2022/03/22 08:49:23;;;;;;;8.98;5.95;;;;;;;;;;5093093;28;20016;-75
2022/03/22 08:51:49;;;;;;;7.20;5.38;;;;;;;;;;5077902;28;20028;-74
2022/03/22 08:54:17;;;;;;;9.95;5.50;;;;;;;;;;5097888;28;20069;-77
2022/03/22 08:56:43;;;;;;;8.73;5.07;;;;;;;;;;5101346;28;20042;-75
2022/03/22 08:59:09;;;;;;;7.38;5.30;;;;;;;;;;5106448;28;20093;-76
2022/03/22 09:01:35;;;;;;;9.02;5.35;;;;;;;;;;5094553;28;20028;-76
2022/03/22 09:06:46;;;;;;;7.38;5.20;;;;;;;;;;5096875;28;20105;-76
2022/03/22 09:09:13;;;;;;;7.95;4.72;;;;;;;;;;5106455;28;20032;-69
2022/03/22 09:11:39;;;;;;;8.20;5.23;;;;;;;;;;5101850;28;20111;-67
2022/03/22 09:14:05;;;;;;;6.40;4.50;;;;;;;;;;5079045;28;20111;-66
2022/03/22 09:16:32;;;;;;;8.40;5.18;;;;;;;;;;5093616;28;20119;-67
2022/03/22 09:18:58;;;;;;;7.15;5.07;;;;;;;;;;5075397;28;20420;-71
2022/03/22 09:21:24;;;;;;;8.00;5.00;;;;;;;;;;5086677;28;20027;-66
2022/03/22 09:23:50;;;;;;;7.65;5.18;;;;;;;;;;5100171;28;20042;-68
2022/03/22 09:26:16;;;;;;;9.10;5.47;;;;;;;;;;5096342;28;20031;-73
2022/03/22 09:28:42;;;;;;;8.07;5.40;;;;;;;;;;5094560;28;20361;-70
2022/03/22 09:31:09;;;;;;;12.93;7.05;;;;;;;;;;5075325;28;20046;-69
2022/03/22 09:33:34;;;;;;;11.48;6.65;;;;;;;;;;5095536;28;20095;-70
2022/03/22 09:36:01;;;;;;;11.40;6.57;;;;;;;;;;5102996;28;20115;-70
2022/03/22 09:38:27;;;;;;;11.68;6.63;;;;;;;;;;5103484;28;20016;-72
2022/03/22 09:40:54;;;;;;;10.18;6.82;;;;;;;;;;5095967;28;20031;-69
2022/03/22 09:43:23;;;;;;;12.40;7.13;;;;;;;;;;5091581;28;20024;-71
2022/03/22 09:45:51;;;;;;;12.65;8.23;;;;;;;;;;5107373;28;20026;-72
2022/03/22 09:48:17;;;;;;;12.00;8.18;;;;;;;;;;5105324;28;20047;-69
2022/03/22 09:53:28;;;;;;;10.90;8.15;;;;;;;;;;5095363;28;20125;-69
2022/03/22 09:55:54;;;;;;;14.57;8.93;;;;;;;;;;5096100;28;20035;-70
2022/03/22 09:58:20;;;;;;;12.38;8.88;;;;;;;;;;5091474;28;20533;-71
2022/03/22 10:00:47;;;;;;;14.10;9.55;;;;;;;;;;5106696;28;20042;-69
2022/03/22 10:03:20;;;;;;;16.30;10.40;;;;;;;;;;5096167;28;20028;-67
2022/03/22 10:05:57;;;;;;;13.98;9.70;;;;;;;;;;5095619;28;20028;-68
2022/03/22 10:08:23;;;;;;;14.88;9.85;;;;;;;;;;5081512;28;20034;-67
2022/03/22 10:10:53;;;;;;;17.67;12.52;;;;;;;;;;5107429;28;20034;-69
2022/03/22 10:13:19;;;;;;;17.88;11.10;;;;;;;;;;5074213;28;20103;-71
2022/03/22 10:15:46;;;;;;;17.50;12.05;;;;;;;;;;5091455;28;20043;-70
2022/03/22 10:18:12;;;;;;;16.13;11.05;;;;;;;;;;5095842;28;20053;-70
2022/03/22 10:20:40;;;;;;;16.27;11.73;;;;;;;;;;5095742;28;20427;-67
2022/03/22 10:23:07;;;;;;;18.33;12.90;;;;;;;;;;5095911;28;20028;-64
2022/03/22 10:25:34;;;;;;;16.17;11.23;;;;;;;;;;5092469;28;20051;-64
2022/03/22 10:28:01;;;;;;;17.42;11.00;;;;;;;;;;5092294;28;20012;-64
2022/03/22 10:30:27;;;;;;;16.93;12.77;;;;;;;;;;5094750;28;20048;-69
2022/03/22 10:32:54;;;;;;;17.13;12.13;;;;;;;;;;5094433;28;20269;-69
2022/03/22 10:35:26;;;;;;;18.65;13.18;;;;;;;;;;5095722;28;20113;-69
2022/03/22 10:37:56;;;;;;;21.05;13.60;;;;;;;;;;5099574;28;20067;-68
2022/03/22 10:40:27;;;;;;;17.85;11.35;;;;;;;;;;5095443;28;20058;-71
2022/03/22 10:42:58;;;;;;;15.73;11.93;;;;;;;;;;5097680;28;20020;-69
2022/03/22 10:45:25;;;;;;;19.83;13.35;;;;;;;;;;5109519;28;20027;-67
2022/03/22 10:47:51;;;;;;;15.82;11.82;;;;;;;;;;5102833;28;20035;-69
2022/03/22 10:50:18;;;;;;;19.95;12.68;;;;;;;;;;5081795;28;20467;-69
2022/03/22 10:53:10;;;;;;;16.13;11.30;;;;;;;;;;5096610;28;20020;-69
2022/03/22 10:55:36;;;;;;;18.17;13.70;;;;;;;;;;5093112;28;20040;-69
2022/03/22 10:58:02;;;;;;;19.73;13.82;;;;;;;;;;5097015;28;20020;-69
2022/03/22 11:00:28;;;;;;;20.77;13.07;;;;;;;;;;5098298;28;20040;-69
2022/03/22 11:02:55;;;;;;;18.67;12.23;;;;;;;;;;5099078;28;20021;-70
2022/03/22 11:05:22;;;;;;;18.67;11.80;;;;;;;;;;5098917;28;20045;-70
2022/03/22 11:07:49;;;;;;;18.85;13.45;;;;;;;;;;5098795;28;20468;-69
2022/03/22 11:10:19;;;;;;;15.77;10.48;;;;;;;;;;5111605;28;20024;-69
2022/03/22 11:12:46;;;;;;;23.52;14.18;;;;;;;;;;5113564;28;20023;-69
2022/03/22 11:15:13;;;;;;;18.88;13.40;;;;;;;;;;5094523;28;20457;-69
2022/03/22 11:17:41;;;;;;;20.95;14.77;;;;;;;;;;5112339;28;20119;-69
2022/03/22 11:20:08;;;;;;;16.88;13.68;;;;;;;;;;5103033;28;20024;-70
2022/03/22 11:22:34;;;;;;;20.25;11.32;;;;;;;;;;5102532;28;20396;-68
2022/03/22 11:25:13;;;;;;;17.52;12.20;;;;;;;;;;5108527;28;20016;-69
2022/03/22 11:27:39;;;;;;;18.52;14.13;;;;;;;;;;5091457;28;20020;-69
2022/03/22 11:30:06;;;;;;;18.52;13.18;;;;;;;;;;5106884;28;20126;-68
2022/03/22 11:35:18;;;;;;;20.15;14.57;;;;;;;;;;5109113;27;20055;-68
2022/03/22 11:37:54;;;;;;;20.05;14.15;;;;;;;;;;5110901;28;20477;-67
2022/03/22 11:43:10;;;;;;;17.45;12.85;;;;;;;;;;5109409;28;20035;-66
2022/03/22 11:45:46;;;;;;;18.23;13.75;;;;;;;;;;5097005;28;20438;-68
2022/03/22 11:48:12;;;;;;;18.92;13.30;;;;;;;;;;5097085;28;20442;-66
2022/03/22 11:50:38;;;;;;;19.20;14.40;;;;;;;;;;5097561;28;20020;-65
2022/03/22 11:53:04;;;;;;;16.35;12.43;;;;;;;;;;5080914;28;20024;-67
2022/03/22 11:55:30;;;;;;;18.42;14.25;;;;;;;;;;5107828;28;20404;-67
2022/03/22 11:57:56;;;;;;;20.17;14.05;;;;;;;;;;5076433;28;20028;-65
2022/03/22 12:00:22;;;;;;;18.80;13.23;;;;;;;;;;5097597;28;20027;-63
2022/03/22 12:02:53;;;;;;;19.55;12.85;;;;;;;;;;5104637;28;20104;-65
2022/03/22 12:05:20;;;;;;;21.73;14.93;;;;;;;;;;5081619;28;20107;-65
2022/03/22 12:07:47;;;;;;;18.50;14.77;;;;;;;;;;5095321;28;20565;-68
2022/03/22 12:10:14;;;;;;;20.23;13.95;;;;;;;;;;5109224;28;20020;-67
2022/03/22 12:12:43;;;;;;;17.95;14.02;;;;;;;;;;5107528;28;20524;-69
2022/03/22 12:15:10;;;;;;;18.88;14.02;;;;;;;;;;5094407;28;20036;-72
2022/03/22 12:17:36;;;;;;;19.27;14.63;;;;;;;;;;5096827;28;20397;-75
2022/03/22 12:20:16;;;;;;;21.40;14.60;;;;;;;;;;5095363;28;20485;-74
2022/03/22 12:22:43;;;;;;;18.40;11.88;;;;;;;;;;5077128;28;20038;-76
2022/03/22 12:25:11;;;;;;;18.37;14.37;;;;;;;;;;5093214;28;20416;-75
2022/03/22 12:27:37;;;;;;;18.30;11.40;;;;;;;;;;5096532;28;20085;-73
2022/03/22 12:30:04;;;;;;;17.77;12.93;;;;;;;;;;5102183;28;20067;-75
2022/03/22 12:32:30;;;;;;;19.00;13.90;;;;;;;;;;5088317;28;20024;-75
2022/03/22 12:34:57;;;;;;;20.50;12.88;;;;;;;;;;5097167;28;20140;-67
2022/03/22 12:37:23;;;;;;;18.77;14.52;;;;;;;;;;5074964;28;20016;-70
2022/03/22 12:39:49;;;;;;;18.95;14.38;;;;;;;;;;5096240;28;20031;-69
2022/03/22 12:42:16;;;;;;;17.17;13.57;;;;;;;;;;5097608;28;20030;-70
2022/03/22 12:44:42;;;;;;;16.60;12.80;;;;;;;;;;5097101;28;20024;-70
2022/03/22 12:47:08;;;;;;;17.13;12.02;;;;;;;;;;5097851;28;20236;-69
2022/03/22 12:49:37;;;;;;;19.35;13.68;;;;;;;;;;5094320;28;20391;-69
2022/03/22 12:52:03;;;;;;;18.75;13.90;;;;;;;;;;5109054;28;20031;-70
2022/03/22 12:54:33;;;;;;;17.83;14.07;;;;;;;;;;5096134;28;20024;-70
2022/03/22 12:57:01;;;;;;;19.80;14.45;;;;;;;;;;5097015;28;20024;-69
2022/03/22 12:59:28;;;;;;;20.38;13.68;;;;;;;;;;5096324;28;20103;-70
2022/03/22 13:01:56;;;;;;;18.85;13.25;;;;;;;;;;5096777;28;20038;-69
2022/03/22 13:04:22;;;;;;;;;;;;;;;;;;5075561;28;20027;-70
2022/03/22 13:06:50;;;;;;;19.45;14.15;;;;;;;;;;5077850;28;20408;-71
2022/03/22 13:12:01;;;;;;;18.73;13.75;;;;;;;;;;5099565;28;20846;-69
2022/03/22 13:17:11;;;;;;;17.95;14.43;;;;;;;;;;5096441;28;20100;-70
2022/03/22 13:19:38;;;;;;;17.63;13.18;;;;;;;;;;5094202;28;20020;-69
2022/03/22 13:22:04;;;;;;;20.52;14.65;;;;;;;;;;5076002;28;20020;-69
2022/03/22 13:24:35;;;;;;;19.92;13.73;;;;;;;;;;5095766;28;20036;-70
2022/03/22 13:27:02;;;;;;;19.85;14.25;;;;;;;;;;5096497;28;20480;-69
2022/03/22 13:29:38;;;;;;;21.65;14.35;;;;;;;;;;5098437;28;20044;-69
2022/03/22 13:32:14;;;;;;;16.98;12.35;;;;;;;;;;5076606;28;20386;-70
2022/03/22 13:34:44;;;;;;;19.35;13.02;;;;;;;;;;5060529;28;20412;-70
2022/03/22 13:37:15;;;;;;;21.08;11.88;;;;;;;;;;5063585;28;20033;-69
2022/03/22 13:39:42;;;;;;;19.42;12.40;;;;;;;;;;5066073;28;20029;-68
2022/03/22 13:42:10;;;;;;;18.63;11.40;;;;;;;;;;5060340;28;20334;-69
2022/03/22 13:44:49;;;;;;;21.95;14.40;;;;;;;;;;5060367;28;20043;-67
2022/03/22 13:47:31;;;;;;;18.23;13.38;;;;;;;;;;5059871;28;20434;-67
2022/03/22 13:49:57;;;;;;;19.30;13.73;;;;;;;;;;5053339;28;20025;-67
2022/03/22 13:52:25;;;;;;;20.45;13.32;;;;;;;;;;5043723;28;20055;-68
2022/03/22 13:54:53;;;;;;;20.80;12.88;;;;;;;;;;5030727;28;20097;-67
2022/03/22 13:57:20;;;;;;;18.73;14.05;;;;;;;;;;5032706;28;20028;-68
2022/03/22 13:59:46;;;;;;;17.85;12.63;;;;;;;;;;5032364;28;20021;-68
2022/03/22 14:02:12;;;;;;;17.08;13.60;;;;;;;;;;5032905;28;20503;-67
2022/03/22 14:04:38;;;;;;;17.88;12.35;;;;;;;;;;5045955;28;20021;-68
2022/03/22 14:07:06;;;;;;;16.95;12.85;;;;;;;;;;5044759;28;20057;-68
2022/03/22 14:09:33;;;;;;;19.98;13.98;;;;;;;;;;5045227;28;20021;-66
2022/03/22 14:11:59;;;;;;;16.95;12.90;;;;;;;;;;5034248;28;20107;-69
2022/03/22 14:14:25;;;;;;;16.02;11.95;;;;;;;;;;5032336;28;20018;-68
2022/03/22 14:16:51;;;;;;;15.35;12.27;;;;;;;;;;5031541;28;20121;-69
2022/03/22 14:19:20;;;;;;;16.55;13.15;;;;;;;;;;5028153;28;20104;-69
2022/03/22 14:21:46;;;;;;;15.80;10.60;;;;;;;;;;5030398;28;20021;-68
2022/03/22 14:24:12;;;;;;;15.77;11.43;;;;;;;;;;5031533;28;20102;-68
2022/03/22 14:26:38;;;;;;;18.60;13.27;;;;;;;;;;5031035;28;20025;-68
2022/03/22 14:29:04;;;;;;;17.15;11.98;;;;;;;;;;5031407;28;20528;-68
2022/03/22 14:31:30;;;;;;;18.05;13.50;;;;;;;;;;5027668;28;20047;-70
2022/03/22 14:33:56;;;;;;;20.35;12.40;;;;;;;;;;5027674;28;20045;-69
2022/03/22 14:36:22;;;;;;;14.48;10.05;;;;;;;;;;5030062;28;20041;-71
2022/03/22 14:38:49;;;;;;;16.88;12.73;;;;;;;;;;5029347;28;20018;-71
2022/03/22 14:41:27;;;;;;;16.42;11.88;;;;;;;;;;5029223;28;20022;-68
2022/03/22 14:43:57;;;;;;;16.10;10.93;;;;;;;;;;5015979;28;20029;-69
2022/03/22 14:46:23;;;;;;;16.00;12.55;;;;;;;;;;5027807;28;20057;-68
2022/03/22 14:48:49;;;;;;;17.83;12.63;;;;;;;;;;5016070;28;20099;-69
2022/03/22 14:51:17;;;;;;;17.73;11.95;;;;;;;;;;5017148;28;20029;-72
2022/03/22 14:59:13;;;;;;;15.82;11.93;;;;;;;;;;5017482;28;20076;-71
2022/03/22 15:01:39;;;;;;;15.32;12.02;;;;;;;;;;5015805;28;20025;-72
2022/03/22 15:04:05;;;;;;;16.08;12.32;;;;;;;;;;5013752;28;20070;-69
2022/03/22 15:06:32;;;;;;;16.65;12.10;;;;;;;;;;5016200;28;20075;-68
2022/03/22 15:08:58;;;;;;;13.75;11.00;;;;;;;;;;5024007;28;20503;-67
2022/03/22 15:11:24;;;;;;;14.93;10.02;;;;;;;;;;5028947;28;20045;-67